sensor_id;sensor_type;location;lat;lon;timestamp;P1;durP1;ratioP1;P2;durP2;ratioP2
56399;SDS011;42298;53.638;9.876;2023-04-06T00:01:50;15.00;;;8.60;;
56399;SDS011;42298;53.638;9.876;2023-04-06T00:04:16;14.63;;;8.73;;
56399;SDS011;42298;53.638;9.876;2023-04-06T00:06:43;14.43;;;7.90;;
56399;SDS011;42298;53.638;9.876;2023-04-06T00:09:08;12.70;;;7.60;;
56399;SDS011;42298;53.638;9.876;2023-04-06T00:11:33;14.33;;;7.60;;
56399;SDS011;42298;53.638;9.876;2023-04-06T00:13:59;14.37;;;7.90;;
56399;SDS011;42298;53.638;9.876;2023-04-06T00:16:25;19.33;;;7.83;;
56399;SDS011;42298;53.638;9.876;2023-04-06T00:18:51;14.37;;;7.70;;
56399;SDS011;42298;53.638;9.876;2023-04-06T00:21:16;13.97;;;7.70;;
56399;SDS011;42298;53.638;9.876;2023-04-06T00:23:42;12.70;;;7.20;;
56399;SDS011;42298;53.638;9.876;2023-04-06T00:26:09;12.23;;;6.43;;
56399;SDS011;42298;53.638;9.876;2023-04-06T00:28:35;12.50;;;6.50;;
56399;SDS011;42298;53.638;9.876;2023-04-06T00:31:03;13.20;;;7.53;;
56399;SDS011;42298;53.638;9.876;2023-04-06T00:33:28;14.10;;;7.47;;
56399;SDS011;42298;53.638;9.876;2023-04-06T00:35:54;13.53;;;7.37;;
56399;SDS011;42298;53.638;9.876;2023-04-06T00:38:19;14.40;;;7.40;;
56399;SDS011;42298;53.638;9.876;2023-04-06T00:43:31;13.17;;;7.00;;
56399;SDS011;42298;53.638;9.876;2023-04-06T00:45:57;14.33;;;7.47;;
56399;SDS011;42298;53.638;9.876;2023-04-06T00:48:24;12.70;;;6.93;;
56399;SDS011;42298;53.638;9.876;2023-04-06T00:50:51;13.17;;;6.93;;
56399;SDS011;42298;53.638;9.876;2023-04-06T00:53:16;11.83;;;6.97;;
56399;SDS011;42298;53.638;9.876;2023-04-06T00:55:42;12.97;;;7.10;;
56399;SDS011;42298;53.638;9.876;2023-04-06T00:58:08;12.60;;;6.57;;
56399;SDS011;42298;53.638;9.876;2023-04-06T01:00:33;11.90;;;6.47;;
56399;SDS011;42298;53.638;9.876;2023-04-06T01:02:59;13.07;;;7.10;;
56399;SDS011;42298;53.638;9.876;2023-04-06T01:05:24;12.77;;;6.50;;
56399;SDS011;42298;53.638;9.876;2023-04-06T01:07:50;12.40;;;6.40;;
56399;SDS011;42298;53.638;9.876;2023-04-06T01:10:25;11.73;;;6.20;;
56399;SDS011;42298;53.638;9.876;2023-04-06T01:12:51;10.47;;;6.20;;
56399;SDS011;42298;53.638;9.876;2023-04-06T01:15:16;10.73;;;5.77;;
56399;SDS011;42298;53.638;9.876;2023-04-06T01:17:44;10.40;;;5.80;;
56399;SDS011;42298;53.638;9.876;2023-04-06T01:20:11;11.07;;;6.00;;
56399;SDS011;42298;53.638;9.876;2023-04-06T01:22:37;11.43;;;5.80;;
56399;SDS011;42298;53.638;9.876;2023-04-06T01:25:03;13.00;;;6.23;;
56399;SDS011;42298;53.638;9.876;2023-04-06T01:27:30;10.93;;;6.13;;
56399;SDS011;42298;53.638;9.876;2023-04-06T01:29:57;11.43;;;6.37;;
56399;SDS011;42298;53.638;9.876;2023-04-06T01:32:23;11.63;;;6.57;;
56399;SDS011;42298;53.638;9.876;2023-04-06T01:34:48;13.87;;;6.43;;
56399;SDS011;42298;53.638;9.876;2023-04-06T01:37:15;13.07;;;6.40;;
56399;SDS011;42298;53.638;9.876;2023-04-06T01:39:42;12.33;;;6.60;;
56399;SDS011;42298;53.638;9.876;2023-04-06T01:42:08;14.17;;;6.97;;
56399;SDS011;42298;53.638;9.876;2023-04-06T01:44:33;14.30;;;8.13;;
56399;SDS011;42298;53.638;9.876;2023-04-06T01:47:00;13.47;;;7.10;;
56399;SDS011;42298;53.638;9.876;2023-04-06T01:49:25;12.70;;;7.20;;
56399;SDS011;42298;53.638;9.876;2023-04-06T01:51:50;12.43;;;6.43;;
56399;SDS011;42298;53.638;9.876;2023-04-06T01:54:16;11.00;;;5.67;;
56399;SDS011;42298;53.638;9.876;2023-04-06T01:56:42;11.90;;;6.00;;
56399;SDS011;42298;53.638;9.876;2023-04-06T01:59:07;11.40;;;6.10;;
56399;SDS011;42298;53.638;9.876;2023-04-06T02:01:32;12.60;;;6.90;;
56399;SDS011;42298;53.638;9.876;2023-04-06T02:04:00;12.80;;;6.67;;
56399;SDS011;42298;53.638;9.876;2023-04-06T02:06:25;13.07;;;6.83;;
56399;SDS011;42298;53.638;9.876;2023-04-06T02:08:51;12.67;;;6.90;;
56399;SDS011;42298;53.638;9.876;2023-04-06T02:11:17;14.67;;;6.93;;
56399;SDS011;42298;53.638;9.876;2023-04-06T02:13:42;13.17;;;7.20;;
56399;SDS011;42298;53.638;9.876;2023-04-06T02:16:07;14.13;;;7.30;;
56399;SDS011;42298;53.638;9.876;2023-04-06T02:18:34;14.20;;;7.07;;
56399;SDS011;42298;53.638;9.876;2023-04-06T02:21:00;13.10;;;6.97;;
56399;SDS011;42298;53.638;9.876;2023-04-06T02:23:25;12.07;;;6.97;;
56399;SDS011;42298;53.638;9.876;2023-04-06T02:25:51;12.47;;;7.13;;
56399;SDS011;42298;53.638;9.876;2023-04-06T02:28:17;12.50;;;6.70;;
56399;SDS011;42298;53.638;9.876;2023-04-06T02:30:45;13.10;;;6.70;;
56399;SDS011;42298;53.638;9.876;2023-04-06T02:33:11;12.70;;;6.07;;
56399;SDS011;42298;53.638;9.876;2023-04-06T02:35:36;13.83;;;6.47;;
56399;SDS011;42298;53.638;9.876;2023-04-06T02:38:02;10.73;;;6.10;;
56399;SDS011;42298;53.638;9.876;2023-04-06T02:40:27;13.10;;;6.40;;
56399;SDS011;42298;53.638;9.876;2023-04-06T02:42:54;10.47;;;5.93;;
56399;SDS011;42298;53.638;9.876;2023-04-06T02:45:19;11.50;;;6.27;;
56399;SDS011;42298;53.638;9.876;2023-04-06T02:47:45;11.80;;;5.63;;
56399;SDS011;42298;53.638;9.876;2023-04-06T02:50:10;12.33;;;6.10;;
56399;SDS011;42298;53.638;9.876;2023-04-06T02:52:36;11.63;;;6.40;;
56399;SDS011;42298;53.638;9.876;2023-04-06T02:55:01;10.90;;;6.30;;
56399;SDS011;42298;53.638;9.876;2023-04-06T02:57:28;12.23;;;6.17;;
56399;SDS011;42298;53.638;9.876;2023-04-06T02:59:54;13.10;;;6.07;;
56399;SDS011;42298;53.638;9.876;2023-04-06T03:02:21;12.57;;;6.93;;
56399;SDS011;42298;53.638;9.876;2023-04-06T03:04:46;12.97;;;6.30;;
56399;SDS011;42298;53.638;9.876;2023-04-06T03:07:13;11.40;;;6.20;;
56399;SDS011;42298;53.638;9.876;2023-04-06T03:09:39;11.80;;;6.73;;
56399;SDS011;42298;53.638;9.876;2023-04-06T03:12:05;12.90;;;6.07;;
56399;SDS011;42298;53.638;9.876;2023-04-06T03:14:30;12.30;;;6.23;;
56399;SDS011;42298;53.638;9.876;2023-04-06T03:16:56;10.33;;;6.10;;
56399;SDS011;42298;53.638;9.876;2023-04-06T03:19:21;10.70;;;5.97;;
56399;SDS011;42298;53.638;9.876;2023-04-06T03:21:49;10.30;;;5.80;;
56399;SDS011;42298;53.638;9.876;2023-04-06T03:24:15;13.07;;;6.37;;
56399;SDS011;42298;53.638;9.876;2023-04-06T03:26:40;11.53;;;5.27;;
56399;SDS011;42298;53.638;9.876;2023-04-06T03:29:06;12.20;;;6.17;;
56399;SDS011;42298;53.638;9.876;2023-04-06T03:31:31;12.93;;;6.90;;
56399;SDS011;42298;53.638;9.876;2023-04-06T03:33:57;15.33;;;7.00;;
56399;SDS011;42298;53.638;9.876;2023-04-06T03:36:22;13.73;;;6.23;;
56399;SDS011;42298;53.638;9.876;2023-04-06T03:38:50;15.20;;;6.83;;
56399;SDS011;42298;53.638;9.876;2023-04-06T03:41:15;13.17;;;6.80;;
56399;SDS011;42298;53.638;9.876;2023-04-06T03:43:41;11.93;;;6.87;;
56399;SDS011;42298;53.638;9.876;2023-04-06T03:46:08;12.93;;;6.70;;
56399;SDS011;42298;53.638;9.876;2023-04-06T03:48:35;12.40;;;6.93;;
56399;SDS011;42298;53.638;9.876;2023-04-06T03:51:01;12.20;;;6.73;;
56399;SDS011;42298;53.638;9.876;2023-04-06T03:53:26;12.00;;;6.87;;
56399;SDS011;42298;53.638;9.876;2023-04-06T03:55:52;13.23;;;7.47;;
56399;SDS011;42298;53.638;9.876;2023-04-06T03:58:17;13.10;;;6.80;;
56399;SDS011;42298;53.638;9.876;2023-04-06T04:00:43;12.90;;;7.00;;
56399;SDS011;42298;53.638;9.876;2023-04-06T04:03:09;15.07;;;7.30;;
56399;SDS011;42298;53.638;9.876;2023-04-06T04:05:34;12.23;;;6.37;;
56399;SDS011;42298;53.638;9.876;2023-04-06T04:08:00;12.40;;;6.93;;
56399;SDS011;42298;53.638;9.876;2023-04-06T04:10:25;12.13;;;6.93;;
56399;SDS011;42298;53.638;9.876;2023-04-06T04:12:50;12.00;;;6.30;;
56399;SDS011;42298;53.638;9.876;2023-04-06T04:15:17;13.27;;;7.17;;
56399;SDS011;42298;53.638;9.876;2023-04-06T04:17:43;13.30;;;6.93;;
56399;SDS011;42298;53.638;9.876;2023-04-06T04:20:11;15.40;;;6.70;;
56399;SDS011;42298;53.638;9.876;2023-04-06T04:22:37;12.07;;;6.10;;
56399;SDS011;42298;53.638;9.876;2023-04-06T04:25:05;11.87;;;6.50;;
56399;SDS011;42298;53.638;9.876;2023-04-06T04:27:31;14.33;;;6.83;;
56399;SDS011;42298;53.638;9.876;2023-04-06T04:29:57;13.00;;;6.57;;
56399;SDS011;42298;53.638;9.876;2023-04-06T04:32:23;16.07;;;7.70;;
56399;SDS011;42298;53.638;9.876;2023-04-06T04:34:52;12.00;;;7.07;;
56399;SDS011;42298;53.638;9.876;2023-04-06T04:37:17;16.10;;;8.17;;
56399;SDS011;42298;53.638;9.876;2023-04-06T04:39:43;16.67;;;8.53;;
56399;SDS011;42298;53.638;9.876;2023-04-06T04:42:09;14.30;;;7.70;;
56399;SDS011;42298;53.638;9.876;2023-04-06T04:44:35;15.90;;;8.17;;
56399;SDS011;42298;53.638;9.876;2023-04-06T04:47:00;13.13;;;7.77;;
56399;SDS011;42298;53.638;9.876;2023-04-06T04:49:26;16.43;;;7.83;;
56399;SDS011;42298;53.638;9.876;2023-04-06T04:51:51;14.87;;;8.50;;
56399;SDS011;42298;53.638;9.876;2023-04-06T04:54:17;11.40;;;6.93;;
56399;SDS011;42298;53.638;9.876;2023-04-06T04:56:43;14.43;;;7.63;;
56399;SDS011;42298;53.638;9.876;2023-04-06T04:59:09;12.80;;;7.17;;
56399;SDS011;42298;53.638;9.876;2023-04-06T05:01:35;12.40;;;7.03;;
56399;SDS011;42298;53.638;9.876;2023-04-06T05:04:01;13.07;;;6.50;;
56399;SDS011;42298;53.638;9.876;2023-04-06T05:06:27;11.57;;;6.60;;
56399;SDS011;42298;53.638;9.876;2023-04-06T05:08:53;14.23;;;8.13;;
56399;SDS011;42298;53.638;9.876;2023-04-06T05:11:18;10.90;;;6.30;;
56399;SDS011;42298;53.638;9.876;2023-04-06T05:13:43;13.70;;;7.43;;
56399;SDS011;42298;53.638;9.876;2023-04-06T05:16:09;11.73;;;6.60;;
56399;SDS011;42298;53.638;9.876;2023-04-06T05:18:35;15.63;;;7.40;;
56399;SDS011;42298;53.638;9.876;2023-04-06T05:21:00;12.50;;;6.63;;
56399;SDS011;42298;53.638;9.876;2023-04-06T05:23:27;11.50;;;6.50;;
56399;SDS011;42298;53.638;9.876;2023-04-06T05:25:52;11.13;;;6.60;;
56399;SDS011;42298;53.638;9.876;2023-04-06T05:28:18;13.30;;;7.13;;
56399;SDS011;42298;53.638;9.876;2023-04-06T05:30:44;15.67;;;8.00;;
56399;SDS011;42298;53.638;9.876;2023-04-06T05:33:10;13.13;;;7.40;;
56399;SDS011;42298;53.638;9.876;2023-04-06T05:35:36;14.23;;;8.00;;
56399;SDS011;42298;53.638;9.876;2023-04-06T05:38:01;14.17;;;8.17;;
56399;SDS011;42298;53.638;9.876;2023-04-06T05:40:27;12.33;;;7.07;;
56399;SDS011;42298;53.638;9.876;2023-04-06T05:42:54;12.87;;;6.97;;
56399;SDS011;42298;53.638;9.876;2023-04-06T05:45:20;12.90;;;7.90;;
56399;SDS011;42298;53.638;9.876;2023-04-06T05:47:46;13.40;;;8.00;;
56399;SDS011;42298;53.638;9.876;2023-04-06T05:50:14;13.67;;;7.33;;
56399;SDS011;42298;53.638;9.876;2023-04-06T05:52:40;15.00;;;7.23;;
56399;SDS011;42298;53.638;9.876;2023-04-06T05:55:08;13.90;;;8.07;;
56399;SDS011;42298;53.638;9.876;2023-04-06T05:57:35;14.27;;;7.30;;
56399;SDS011;42298;53.638;9.876;2023-04-06T06:00:00;13.97;;;7.50;;
56399;SDS011;42298;53.638;9.876;2023-04-06T06:02:27;14.00;;;7.43;;
56399;SDS011;42298;53.638;9.876;2023-04-06T06:04:55;14.00;;;7.47;;
56399;SDS011;42298;53.638;9.876;2023-04-06T06:07:21;12.13;;;6.47;;
56399;SDS011;42298;53.638;9.876;2023-04-06T06:09:46;11.73;;;7.40;;
56399;SDS011;42298;53.638;9.876;2023-04-06T06:12:11;13.43;;;7.93;;
56399;SDS011;42298;53.638;9.876;2023-04-06T06:14:38;13.73;;;8.03;;
56399;SDS011;42298;53.638;9.876;2023-04-06T06:17:03;13.00;;;7.33;;
56399;SDS011;42298;53.638;9.876;2023-04-06T06:19:29;16.33;;;8.33;;
56399;SDS011;42298;53.638;9.876;2023-04-06T06:21:54;12.73;;;6.83;;
56399;SDS011;42298;53.638;9.876;2023-04-06T06:24:25;14.90;;;7.13;;
56399;SDS011;42298;53.638;9.876;2023-04-06T06:26:50;13.17;;;6.93;;
56399;SDS011;42298;53.638;9.876;2023-04-06T06:29:16;13.07;;;7.37;;
56399;SDS011;42298;53.638;9.876;2023-04-06T06:31:41;13.40;;;7.20;;
56399;SDS011;42298;53.638;9.876;2023-04-06T06:34:06;12.50;;;7.20;;
56399;SDS011;42298;53.638;9.876;2023-04-06T06:36:32;13.23;;;7.00;;
56399;SDS011;42298;53.638;9.876;2023-04-06T06:38:58;12.30;;;7.27;;
56399;SDS011;42298;53.638;9.876;2023-04-06T06:41:25;10.63;;;6.40;;
56399;SDS011;42298;53.638;9.876;2023-04-06T06:43:51;12.67;;;7.20;;
56399;SDS011;42298;53.638;9.876;2023-04-06T06:46:17;12.67;;;7.33;;
56399;SDS011;42298;53.638;9.876;2023-04-06T06:48:42;12.73;;;7.90;;
56399;SDS011;42298;53.638;9.876;2023-04-06T06:51:08;11.93;;;7.07;;
56399;SDS011;42298;53.638;9.876;2023-04-06T06:53:34;13.17;;;7.10;;
56399;SDS011;42298;53.638;9.876;2023-04-06T06:56:00;13.00;;;7.33;;
56399;SDS011;42298;53.638;9.876;2023-04-06T06:58:26;11.77;;;7.30;;
56399;SDS011;42298;53.638;9.876;2023-04-06T07:00:55;12.20;;;7.07;;
56399;SDS011;42298;53.638;9.876;2023-04-06T07:03:24;16.93;;;7.27;;
56399;SDS011;42298;53.638;9.876;2023-04-06T07:05:50;13.87;;;7.43;;
56399;SDS011;42298;53.638;9.876;2023-04-06T07:08:19;11.17;;;7.03;;
56399;SDS011;42298;53.638;9.876;2023-04-06T07:10:45;13.77;;;7.60;;
56399;SDS011;42298;53.638;9.876;2023-04-06T07:13:11;11.30;;;6.57;;
56399;SDS011;42298;53.638;9.876;2023-04-06T07:15:37;15.65;;;7.25;;
56399;SDS011;42298;53.638;9.876;2023-04-06T07:18:04;14.83;;;7.00;;
56399;SDS011;42298;53.638;9.876;2023-04-06T07:20:29;14.83;;;7.30;;
56399;SDS011;42298;53.638;9.876;2023-04-06T07:22:55;11.95;;;6.70;;
56399;SDS011;42298;53.638;9.876;2023-04-06T07:25:20;12.77;;;6.93;;
56399;SDS011;42298;53.638;9.876;2023-04-06T07:27:46;13.02;;;6.60;;
56399;SDS011;42298;53.638;9.876;2023-04-06T07:30:11;10.95;;;6.30;;
56399;SDS011;42298;53.638;9.876;2023-04-06T07:32:37;11.82;;;5.72;;
56399;SDS011;42298;53.638;9.876;2023-04-06T07:35:04;12.32;;;6.60;;
56399;SDS011;42298;53.638;9.876;2023-04-06T07:37:30;12.60;;;7.13;;
56399;SDS011;42298;53.638;9.876;2023-04-06T07:40:00;13.50;;;6.60;;
56399;SDS011;42298;53.638;9.876;2023-04-06T07:42:25;11.63;;;6.50;;
56399;SDS011;42298;53.638;9.876;2023-04-06T07:44:52;11.55;;;6.15;;
56399;SDS011;42298;53.638;9.876;2023-04-06T07:47:17;12.30;;;6.22;;
56399;SDS011;42298;53.638;9.876;2023-04-06T07:49:43;12.15;;;5.95;;
56399;SDS011;42298;53.638;9.876;2023-04-06T07:52:12;12.63;;;6.57;;
56399;SDS011;42298;53.638;9.876;2023-04-06T07:54:37;11.95;;;5.88;;
56399;SDS011;42298;53.638;9.876;2023-04-06T07:57:03;12.98;;;6.40;;
56399;SDS011;42298;53.638;9.876;2023-04-06T07:59:28;11.93;;;5.93;;
56399;SDS011;42298;53.638;9.876;2023-04-06T08:01:56;11.10;;;5.43;;
56399;SDS011;42298;53.638;9.876;2023-04-06T08:04:24;9.82;;;5.65;;
56399;SDS011;42298;53.638;9.876;2023-04-06T08:06:51;11.35;;;5.53;;
56399;SDS011;42298;53.638;9.876;2023-04-06T08:09:17;12.50;;;5.32;;
56399;SDS011;42298;53.638;9.876;2023-04-06T08:11:45;11.88;;;5.75;;
56399;SDS011;42298;53.638;9.876;2023-04-06T08:14:13;10.07;;;5.38;;
56399;SDS011;42298;53.638;9.876;2023-04-06T08:16:40;11.05;;;5.60;;
56399;SDS011;42298;53.638;9.876;2023-04-06T08:19:05;10.70;;;5.57;;
56399;SDS011;42298;53.638;9.876;2023-04-06T08:21:37;10.45;;;5.38;;
56399;SDS011;42298;53.638;9.876;2023-04-06T08:24:02;12.95;;;5.25;;
56399;SDS011;42298;53.638;9.876;2023-04-06T08:26:28;11.48;;;5.50;;
56399;SDS011;42298;53.638;9.876;2023-04-06T08:28:53;11.55;;;4.85;;
56399;SDS011;42298;53.638;9.876;2023-04-06T08:31:20;10.55;;;5.28;;
56399;SDS011;42298;53.638;9.876;2023-04-06T08:34:08;13.90;;;5.30;;
56399;SDS011;42298;53.638;9.876;2023-04-06T08:36:34;9.60;;;5.20;;
56399;SDS011;42298;53.638;9.876;2023-04-06T08:39:01;10.93;;;5.50;;
56399;SDS011;42298;53.638;9.876;2023-04-06T08:41:28;16.25;;;5.68;;
56399;SDS011;42298;53.638;9.876;2023-04-06T08:43:56;11.75;;;5.63;;
56399;SDS011;42298;53.638;9.876;2023-04-06T08:46:22;9.77;;;5.38;;
56399;SDS011;42298;53.638;9.876;2023-04-06T08:48:59;10.20;;;5.57;;
56399;SDS011;42298;53.638;9.876;2023-04-06T08:51:27;9.98;;;5.25;;
56399;SDS011;42298;53.638;9.876;2023-04-06T08:53:55;12.63;;;5.63;;
56399;SDS011;42298;53.638;9.876;2023-04-06T08:56:23;10.75;;;6.30;;
56399;SDS011;42298;53.638;9.876;2023-04-06T08:58:54;11.23;;;5.72;;
56399;SDS011;42298;53.638;9.876;2023-04-06T09:01:21;11.70;;;6.38;;
56399;SDS011;42298;53.638;9.876;2023-04-06T09:03:51;10.93;;;5.80;;
56399;SDS011;42298;53.638;9.876;2023-04-06T09:06:23;9.93;;;5.40;;
56399;SDS011;42298;53.638;9.876;2023-04-06T09:08:49;10.20;;;5.55;;
56399;SDS011;42298;53.638;9.876;2023-04-06T09:11:14;10.93;;;5.80;;
56399;SDS011;42298;53.638;9.876;2023-04-06T09:16:12;10.40;;;5.13;;
56399;SDS011;42298;53.638;9.876;2023-04-06T09:18:38;10.38;;;5.07;;
56399;SDS011;42298;53.638;9.876;2023-04-06T09:21:04;10.02;;;4.95;;
56399;SDS011;42298;53.638;9.876;2023-04-06T09:23:32;13.13;;;5.45;;
56399;SDS011;42298;53.638;9.876;2023-04-06T09:26:05;10.43;;;5.22;;
56399;SDS011;42298;53.638;9.876;2023-04-06T09:28:45;10.77;;;5.18;;
56399;SDS011;42298;53.638;9.876;2023-04-06T09:31:14;9.95;;;4.22;;
56399;SDS011;42298;53.638;9.876;2023-04-06T09:33:41;9.90;;;4.68;;
56399;SDS011;42298;53.638;9.876;2023-04-06T09:36:07;10.30;;;4.95;;
56399;SDS011;42298;53.638;9.876;2023-04-06T09:38:37;11.60;;;4.88;;
56399;SDS011;42298;53.638;9.876;2023-04-06T09:41:05;11.38;;;4.65;;
56399;SDS011;42298;53.638;9.876;2023-04-06T09:43:30;10.05;;;4.65;;
56399;SDS011;42298;53.638;9.876;2023-04-06T09:45:56;8.32;;;4.60;;
56399;SDS011;42298;53.638;9.876;2023-04-06T09:48:22;11.77;;;5.13;;
56399;SDS011;42298;53.638;9.876;2023-04-06T09:50:49;10.23;;;4.93;;
56399;SDS011;42298;53.638;9.876;2023-04-06T09:53:18;10.45;;;4.80;;
56399;SDS011;42298;53.638;9.876;2023-04-06T09:55:44;11.93;;;5.07;;
56399;SDS011;42298;53.638;9.876;2023-04-06T09:58:17;10.27;;;4.60;;
56399;SDS011;42298;53.638;9.876;2023-04-06T10:00:54;9.60;;;4.70;;
56399;SDS011;42298;53.638;9.876;2023-04-06T10:05:56;10.57;;;5.78;;
56399;SDS011;42298;53.638;9.876;2023-04-06T10:08:26;11.07;;;4.95;;
56399;SDS011;42298;53.638;9.876;2023-04-06T10:10:53;12.80;;;5.10;;
56399;SDS011;42298;53.638;9.876;2023-04-06T10:13:21;10.15;;;5.05;;
56399;SDS011;42298;53.638;9.876;2023-04-06T10:15:49;8.82;;;4.70;;
56399;SDS011;42298;53.638;9.876;2023-04-06T10:18:17;10.07;;;4.93;;
56399;SDS011;42298;53.638;9.876;2023-04-06T10:23:36;7.65;;;3.92;;
56399;SDS011;42298;53.638;9.876;2023-04-06T10:26:11;9.35;;;4.50;;
56399;SDS011;42298;53.638;9.876;2023-04-06T10:28:40;10.77;;;4.50;;
56399;SDS011;42298;53.638;9.876;2023-04-06T10:31:06;9.77;;;4.50;;
56399;SDS011;42298;53.638;9.876;2023-04-06T10:33:32;11.98;;;4.57;;
56399;SDS011;42298;53.638;9.876;2023-04-06T10:36:08;8.60;;;4.03;;
56399;SDS011;42298;53.638;9.876;2023-04-06T10:38:38;10.80;;;4.40;;
56399;SDS011;42298;53.638;9.876;2023-04-06T10:41:05;11.10;;;5.22;;
56399;SDS011;42298;53.638;9.876;2023-04-06T10:43:36;9.32;;;4.15;;
56399;SDS011;42298;53.638;9.876;2023-04-06T10:46:04;9.48;;;4.97;;
56399;SDS011;42298;53.638;9.876;2023-04-06T10:48:40;9.55;;;5.10;;
56399;SDS011;42298;53.638;9.876;2023-04-06T10:51:11;10.10;;;4.90;;
56399;SDS011;42298;53.638;9.876;2023-04-06T10:53:38;9.23;;;4.68;;
56399;SDS011;42298;53.638;9.876;2023-04-06T10:56:09;9.23;;;4.88;;
56399;SDS011;42298;53.638;9.876;2023-04-06T10:58:43;10.02;;;5.00;;
56399;SDS011;42298;53.638;9.876;2023-04-06T11:01:12;9.95;;;5.50;;
56399;SDS011;42298;53.638;9.876;2023-04-06T11:03:44;9.40;;;4.90;;
56399;SDS011;42298;53.638;9.876;2023-04-06T11:06:10;10.13;;;5.03;;
56399;SDS011;42298;53.638;9.876;2023-04-06T11:08:36;10.35;;;5.50;;
56399;SDS011;42298;53.638;9.876;2023-04-06T11:11:04;10.98;;;5.63;;
56399;SDS011;42298;53.638;9.876;2023-04-06T11:13:37;12.90;;;5.53;;
56399;SDS011;42298;53.638;9.876;2023-04-06T11:16:04;12.93;;;6.60;;
56399;SDS011;42298;53.638;9.876;2023-04-06T11:18:29;11.40;;;5.72;;
56399;SDS011;42298;53.638;9.876;2023-04-06T11:20:55;9.90;;;5.68;;
56399;SDS011;42298;53.638;9.876;2023-04-06T11:23:23;10.57;;;5.70;;
56399;SDS011;42298;53.638;9.876;2023-04-06T11:25:53;10.93;;;5.55;;
56399;SDS011;42298;53.638;9.876;2023-04-06T11:28:19;14.15;;;6.15;;
56399;SDS011;42298;53.638;9.876;2023-04-06T11:30:45;11.40;;;6.22;;
56399;SDS011;42298;53.638;9.876;2023-04-06T11:33:19;11.10;;;6.22;;
56399;SDS011;42298;53.638;9.876;2023-04-06T11:35:46;10.80;;;6.57;;
56399;SDS011;42298;53.638;9.876;2023-04-06T11:38:11;12.18;;;6.45;;
56399;SDS011;42298;53.638;9.876;2023-04-06T11:40:37;9.85;;;6.10;;
56399;SDS011;42298;53.638;9.876;2023-04-06T11:43:03;13.00;;;5.93;;
56399;SDS011;42298;53.638;9.876;2023-04-06T11:45:38;12.60;;;6.65;;
56399;SDS011;42298;53.638;9.876;2023-04-06T11:48:16;14.95;;;6.72;;
56399;SDS011;42298;53.638;9.876;2023-04-06T11:50:45;11.95;;;6.40;;
56399;SDS011;42298;53.638;9.876;2023-04-06T11:53:11;11.95;;;6.30;;
56399;SDS011;42298;53.638;9.876;2023-04-06T11:55:37;13.38;;;6.90;;
56399;SDS011;42298;53.638;9.876;2023-04-06T11:58:03;12.85;;;6.68;;
56399;SDS011;42298;53.638;9.876;2023-04-06T12:00:29;12.88;;;7.20;;
56399;SDS011;42298;53.638;9.876;2023-04-06T12:02:59;11.93;;;7.05;;
56399;SDS011;42298;53.638;9.876;2023-04-06T12:05:25;13.27;;;7.10;;
56399;SDS011;42298;53.638;9.876;2023-04-06T12:07:50;13.43;;;6.95;;
56399;SDS011;42298;53.638;9.876;2023-04-06T12:10:16;14.82;;;6.93;;
56399;SDS011;42298;53.638;9.876;2023-04-06T12:12:41;12.25;;;6.63;;
56399;SDS011;42298;53.638;9.876;2023-04-06T12:15:07;11.07;;;6.47;;
56399;SDS011;42298;53.638;9.876;2023-04-06T12:17:32;12.18;;;6.50;;
56399;SDS011;42298;53.638;9.876;2023-04-06T12:19:58;13.02;;;7.00;;
56399;SDS011;42298;53.638;9.876;2023-04-06T12:22:23;11.98;;;7.10;;
56399;SDS011;42298;53.638;9.876;2023-04-06T12:24:49;12.57;;;6.95;;
56399;SDS011;42298;53.638;9.876;2023-04-06T12:27:14;12.80;;;6.63;;
56399;SDS011;42298;53.638;9.876;2023-04-06T12:29:40;13.73;;;6.68;;
56399;SDS011;42298;53.638;9.876;2023-04-06T12:32:06;12.00;;;6.68;;
56399;SDS011;42298;53.638;9.876;2023-04-06T12:34:31;11.93;;;6.50;;
56399;SDS011;42298;53.638;9.876;2023-04-06T12:36:57;12.40;;;6.55;;
56399;SDS011;42298;53.638;9.876;2023-04-06T12:39:22;12.55;;;6.50;;
56399;SDS011;42298;53.638;9.876;2023-04-06T12:41:48;13.27;;;7.20;;
56399;SDS011;42298;53.638;9.876;2023-04-06T12:44:14;12.32;;;6.82;;
56399;SDS011;42298;53.638;9.876;2023-04-06T12:46:40;12.15;;;7.25;;
56399;SDS011;42298;53.638;9.876;2023-04-06T12:49:08;12.88;;;7.43;;
56399;SDS011;42298;53.638;9.876;2023-04-06T12:51:33;12.25;;;7.30;;
56399;SDS011;42298;53.638;9.876;2023-04-06T12:53:58;12.63;;;7.30;;
56399;SDS011;42298;53.638;9.876;2023-04-06T12:56:24;12.68;;;7.00;;
56399;SDS011;42298;53.638;9.876;2023-04-06T12:58:50;12.82;;;7.28;;
56399;SDS011;42298;53.638;9.876;2023-04-06T13:01:17;12.20;;;7.10;;
56399;SDS011;42298;53.638;9.876;2023-04-06T13:03:42;12.35;;;7.10;;
56399;SDS011;42298;53.638;9.876;2023-04-06T13:06:08;13.95;;;6.25;;
56399;SDS011;42298;53.638;9.876;2023-04-06T13:08:35;14.05;;;7.25;;
56399;SDS011;42298;53.638;9.876;2023-04-06T13:11:04;13.90;;;7.32;;
56399;SDS011;42298;53.638;9.876;2023-04-06T13:13:30;12.90;;;7.35;;
56399;SDS011;42298;53.638;9.876;2023-04-06T13:15:59;12.13;;;6.63;;
56399;SDS011;42298;53.638;9.876;2023-04-06T13:18:28;12.18;;;7.15;;
56399;SDS011;42298;53.638;9.876;2023-04-06T13:20:55;11.93;;;7.47;;
56399;SDS011;42298;53.638;9.876;2023-04-06T13:23:21;15.27;;;8.18;;
56399;SDS011;42298;53.638;9.876;2023-04-06T13:25:47;13.88;;;8.40;;
56399;SDS011;42298;53.638;9.876;2023-04-06T13:28:12;13.07;;;7.70;;
56399;SDS011;42298;53.638;9.876;2023-04-06T13:30:39;13.07;;;7.55;;
56399;SDS011;42298;53.638;9.876;2023-04-06T13:33:05;13.80;;;7.40;;
56399;SDS011;42298;53.638;9.876;2023-04-06T13:35:31;13.43;;;7.05;;
56399;SDS011;42298;53.638;9.876;2023-04-06T13:37:57;14.25;;;8.10;;
56399;SDS011;42298;53.638;9.876;2023-04-06T13:40:22;13.27;;;8.43;;
56399;SDS011;42298;53.638;9.876;2023-04-06T13:42:48;13.30;;;7.43;;
56399;SDS011;42298;53.638;9.876;2023-04-06T13:45:13;12.18;;;7.60;;
56399;SDS011;42298;53.638;9.876;2023-04-06T13:47:39;13.35;;;7.80;;
56399;SDS011;42298;53.638;9.876;2023-04-06T13:50:05;12.75;;;7.60;;
56399;SDS011;42298;53.638;9.876;2023-04-06T13:52:31;13.82;;;7.93;;
56399;SDS011;42298;53.638;9.876;2023-04-06T13:54:57;13.25;;;7.40;;
56399;SDS011;42298;53.638;9.876;2023-04-06T13:57:22;11.82;;;7.15;;
56399;SDS011;42298;53.638;9.876;2023-04-06T13:59:47;13.52;;;7.07;;
56399;SDS011;42298;53.638;9.876;2023-04-06T14:02:14;14.35;;;7.45;;
56399;SDS011;42298;53.638;9.876;2023-04-06T14:04:40;14.77;;;7.70;;
56399;SDS011;42298;53.638;9.876;2023-04-06T14:07:06;12.05;;;7.18;;
56399;SDS011;42298;53.638;9.876;2023-04-06T14:09:32;12.27;;;7.40;;
56399;SDS011;42298;53.638;9.876;2023-04-06T14:11:58;11.63;;;6.97;;
56399;SDS011;42298;53.638;9.876;2023-04-06T14:14:24;12.15;;;7.10;;
56399;SDS011;42298;53.638;9.876;2023-04-06T14:16:49;13.40;;;7.05;;
56399;SDS011;42298;53.638;9.876;2023-04-06T14:19:15;12.82;;;7.38;;
56399;SDS011;42298;53.638;9.876;2023-04-06T14:21:45;12.85;;;6.53;;
56399;SDS011;42298;53.638;9.876;2023-04-06T14:24:11;11.68;;;6.82;;
56399;SDS011;42298;53.638;9.876;2023-04-06T14:26:37;11.35;;;6.05;;
56399;SDS011;42298;53.638;9.876;2023-04-06T14:29:04;13.88;;;7.25;;
56399;SDS011;42298;53.638;9.876;2023-04-06T14:31:30;11.15;;;5.32;;
56399;SDS011;42298;53.638;9.876;2023-04-06T14:33:56;11.23;;;6.15;;
56399;SDS011;42298;53.638;9.876;2023-04-06T14:36:22;10.73;;;6.50;;
56399;SDS011;42298;53.638;9.876;2023-04-06T14:38:48;12.38;;;6.43;;
56399;SDS011;42298;53.638;9.876;2023-04-06T14:41:15;13.10;;;6.95;;
56399;SDS011;42298;53.638;9.876;2023-04-06T14:43:45;11.57;;;6.75;;